Carnival Pride — H3VU — position and weather

sailwx.info

Track history (hours):
 
Tides and Currents Weather Stations Pressure Air Temp Water Temp Dewpoint Dewpoint Depression Visibility Wind Speed Wind Dir Waves Ship Positions

Carnival Pride

Operator: Carnival Cruise Lines

Last reported at 2015-Apr-19 20:33 UTC. Time now 2015-Apr-19 20:59 UTC.
Position N 39°16' W 076°36'.

Type: Ship. MMSI: 354215000.

Date/timePositionNaut miles runAvg speedWind from/ knotsBaromVisibWave heightAir tempDewpointWater temp
2015-Apr-19 20:33N 39°16' W 076°36'0 0.0
2015-Apr-19 19:30N 39°16' W 076°36'0 0.0
2015-Apr-19 18:33N 39°16' W 076°36'0 0.0
2015-Apr-19 17:32N 39°16' W 076°36'0 0.0
2015-Apr-19 16:25N 39°16' W 076°36'0 0.0
2015-Apr-19 15:30N 39°16' W 076°36'0 0.0
2015-Apr-19 14:33N 39°16' W 076°36'0 0.0
2015-Apr-19 13:32N 39°16' W 076°36'1 1.1
2015-Apr-19 12:34N 39°15' W 076°35'1110.5
2015-Apr-19 11:33N 39°09' W 076°24'1514.8
2015-Apr-19 10:34N 38°54' W 076°24'1817.2
2015-Apr-19 09:31N 38°36' W 076°26'4418.8
2015-Apr-19 07:12N 37°54' W 076°09'1320.0
2015-Apr-19 06:32N 37°41' W 076°10'19816.5
2015-Apr-18 18:33N 34°24' W 076°05'3022.2
2015-Apr-18 17:14N 34°02' W 076°29'15421.3
2015-Apr-18 10:00N 32°06' W 078°30'26022.3 320 / 161015.0 5.4 2.023.022.030.0
2015-Apr-17 22:18N 27°51' W 079°31'1723.0
2015-Apr-17 21:33N 27°34' W 079°29'2222.5
2015-Apr-17 20:33N 27°13' W 079°21'2323.2
2015-Apr-17 19:33N 26°51' W 079°11'  
2015-Apr-13 07:04N 36°48' W 075°46'4613.0
2015-Apr-13 03:33N 37°32' W 076°02'1918.8
2015-Apr-13 02:33N 37°50' W 076°10'2120.0
2015-Apr-13 01:30N 38°10' W 076°14'2420.0
2015-Apr-13 00:19N 38°33' W 076°25'1519.6
2015-Apr-12 23:33N 38°48' W 076°25'1818.2
2015-Apr-12 22:33N 39°06' W 076°24'1212.1
2015-Apr-12 21:33N 39°15' W 076°34'2 1.9
2015-Apr-12 20:32N 39°16' W 076°36'0 0.0
2015-Apr-12 19:32N 39°16' W 076°36'0 0.0
2015-Apr-12 18:30N 39°16' W 076°36'0 0.0
2015-Apr-12 17:32N 39°16' W 076°36'0 0.0
2015-Apr-12 16:32N 39°16' W 076°36'0 0.0
2015-Apr-12 15:33N 39°16' W 076°36'0 0.0
2015-Apr-12 14:32N 39°16' W 076°36'0 0.0
2015-Apr-12 13:32N 39°16' W 076°36'0 0.0
2015-Apr-12 12:32N 39°16' W 076°36'5 5.1
2015-Apr-12 11:33N 39°12' W 076°31'1111.2
2015-Apr-12 10:33N 39°03' W 076°23'1514.6
2015-Apr-12 09:33N 38°49' W 076°25'4117.9
2015-Apr-12 07:15N 38°08' W 076°14'18216.9
2015-Apr-11 20:30N 35°13' W 075°13'6320.8
2015-Apr-11 17:28N 34°25' W 076°03'2320.9
2015-Apr-11 16:21N 34°09' W 076°23'2121.7
2015-Apr-11 15:23N 33°54' W 076°40'  
Track history (hours):
 
Tides and Currents Weather Stations Pressure Air Temp Water Temp Dewpoint Dewpoint Depression Visibility Wind Speed Wind Dir Waves Ship Positions

Carnival Pride

Operator: Carnival Cruise Lines

Last reported at 2015-Apr-19 20:33 UTC. Time now 2015-Apr-19 20:59 UTC.
Position N 39°16' W 076°36'.

Type: Ship. MMSI: 354215000.

Date/timePositionNaut miles runAvg speedWind from/ knotsBaromVisibWave heightAir tempDewpointWater temp
2015-Apr-19 20:33N 39°16' W 076°36'0 0.0
2015-Apr-19 19:30N 39°16' W 076°36'0 0.0
2015-Apr-19 18:33N 39°16' W 076°36'0 0.0
2015-Apr-19 17:32N 39°16' W 076°36'0 0.0
2015-Apr-19 16:25N 39°16' W 076°36'0 0.0
2015-Apr-19 15:30N 39°16' W 076°36'0 0.0
2015-Apr-19 14:33N 39°16' W 076°36'0 0.0
2015-Apr-19 13:32N 39°16' W 076°36'1 1.1
2015-Apr-19 12:34N 39°15' W 076°35'1110.5
2015-Apr-19 11:33N 39°09' W 076°24'1514.8
2015-Apr-19 10:34N 38°54' W 076°24'1817.2
2015-Apr-19 09:31N 38°36' W 076°26'4418.8
2015-Apr-19 07:12N 37°54' W 076°09'1320.0
2015-Apr-19 06:32N 37°41' W 076°10'19816.5
2015-Apr-18 18:33N 34°24' W 076°05'3022.2
2015-Apr-18 17:14N 34°02' W 076°29'15421.3
2015-Apr-18 10:00N 32°06' W 078°30'26022.3 320 / 161015.0 5.4 2.023.022.030.0
2015-Apr-17 22:18N 27°51' W 079°31'1723.0
2015-Apr-17 21:33N 27°34' W 079°29'2222.5
2015-Apr-17 20:33N 27°13' W 079°21'2323.2
2015-Apr-17 19:33N 26°51' W 079°11'  
2015-Apr-13 07:04N 36°48' W 075°46'4613.0
2015-Apr-13 03:33N 37°32' W 076°02'1918.8
2015-Apr-13 02:33N 37°50' W 076°10'2120.0
2015-Apr-13 01:30N 38°10' W 076°14'2420.0
2015-Apr-13 00:19N 38°33' W 076°25'1519.6
2015-Apr-12 23:33N 38°48' W 076°25'1818.2
2015-Apr-12 22:33N 39°06' W 076°24'1212.1
2015-Apr-12 21:33N 39°15' W 076°34'2 1.9
2015-Apr-12 20:32N 39°16' W 076°36'0 0.0
2015-Apr-12 19:32N 39°16' W 076°36'0 0.0
2015-Apr-12 18:30N 39°16' W 076°36'0 0.0
2015-Apr-12 17:32N 39°16' W 076°36'0 0.0
2015-Apr-12 16:32N 39°16' W 076°36'0 0.0
2015-Apr-12 15:33N 39°16' W 076°36'0 0.0
2015-Apr-12 14:32N 39°16' W 076°36'0 0.0
2015-Apr-12 13:32N 39°16' W 076°36'0 0.0
2015-Apr-12 12:32N 39°16' W 076°36'5 5.1
2015-Apr-12 11:33N 39°12' W 076°31'1111.2
2015-Apr-12 10:33N 39°03' W 076°23'1514.6
2015-Apr-12 09:33N 38°49' W 076°25'4117.9
2015-Apr-12 07:15N 38°08' W 076°14'18216.9
2015-Apr-11 20:30N 35°13' W 075°13'6320.8
2015-Apr-11 17:28N 34°25' W 076°03'2320.9
2015-Apr-11 16:21N 34°09' W 076°23'2121.7
2015-Apr-11 15:23N 33°54' W 076°40'  

Dump ship's entire track history